Campeche Bay — P3ZF9 — position and weather

sailwx.info

Track history (hours):
 
Tides and Currents Weather Stations Pressure Air Temp Water Temp Dewpoint Dewpoint Depression Visibility Wind Speed Wind Dir Waves Ship Positions

Campeche Bay

Last reported at 2017-Apr-18 23:31 UTC. Time now 2017-May-26 15:02 UTC.
Position N 29°42' W 095°00'.
Warning: this ship's position is 37 days out of date.

Length 90 m; draft 3.7 m.

Type: Cargo ship. MMSI: 209641000.

Date/timePositionNaut miles runAvg speedWind from/ knotsBaromVisibWave heightAir tempDewpointWater temp
2017-Apr-18 23:31N 29°42' W 095°00'0 9.0
2017-Apr-18 23:30N 29°42' W 095°01'6 1.7
2017-Apr-18 19:55N 29°45' W 095°07'0 0.0
2017-Apr-18 13:27N 29°45' W 095°07'0 0.2
2017-Apr-18 12:56N 29°45' W 095°07'2 5.1
2017-Apr-18 12:30N 29°45' W 095°04'4 8.4
2017-Apr-18 12:00N 29°42' W 095°01'5 8.7
2017-Apr-18 11:28N 29°39' W 094°58'6 9.5
2017-Apr-18 10:52N 29°33' W 094°55'  
2017-Apr-11 20:34N 29°28' W 094°51'110.5
2017-Apr-11 20:30N 29°29' W 094°52'510.1
2017-Apr-11 20:01N 29°33' W 094°55'5 9.6
2017-Apr-11 19:31N 29°37' W 094°57'510.0
2017-Apr-11 19:01N 29°42' W 094°60'5 9.0
2017-Apr-11 18:30N 29°45' W 095°04'3 4.9
2017-Apr-11 17:58N 29°45' W 095°07'0 0.1
2017-Apr-11 17:27N 29°45' W 095°07'0 0.0
2017-Apr-11 16:54N 29°45' W 095°07'0 0.0
2017-Apr-11 15:57N 29°45' W 095°07'0 0.0
2017-Apr-11 15:26N 29°45' W 095°07'0 0.0
2017-Apr-11 14:53N 29°45' W 095°07'0 0.0
2017-Apr-11 11:48N 29°45' W 095°07'0 1.6
2017-Apr-11 11:30N 29°45' W 095°06'2 4.1
2017-Apr-11 11:00N 29°45' W 095°04'4 8.1
2017-Apr-11 10:30N 29°42' W 095°00'5 9.4
2017-Apr-11 10:00N 29°38' W 094°58'5 9.6
2017-Apr-11 09:30N 29°34' W 094°55'5 9.9
2017-Apr-11 09:01N 29°30' W 094°52'5 9.7
2017-Apr-11 08:30N 29°25' W 094°50'  
Track history (hours):
 
Tides and Currents Weather Stations Pressure Air Temp Water Temp Dewpoint Dewpoint Depression Visibility Wind Speed Wind Dir Waves Ship Positions

Campeche Bay

Last reported at 2017-Apr-18 23:31 UTC. Time now 2017-May-26 15:02 UTC.
Position N 29°42' W 095°00'.
Warning: this ship's position is 37 days out of date.

Length 90 m; draft 3.7 m.

Type: Cargo ship. MMSI: 209641000.

Date/timePositionNaut miles runAvg speedWind from/ knotsBaromVisibWave heightAir tempDewpointWater temp
2017-Apr-18 23:31N 29°42' W 095°00'0 9.0
2017-Apr-18 23:30N 29°42' W 095°01'6 1.7
2017-Apr-18 19:55N 29°45' W 095°07'0 0.0
2017-Apr-18 13:27N 29°45' W 095°07'0 0.2
2017-Apr-18 12:56N 29°45' W 095°07'2 5.1
2017-Apr-18 12:30N 29°45' W 095°04'4 8.4
2017-Apr-18 12:00N 29°42' W 095°01'5 8.7
2017-Apr-18 11:28N 29°39' W 094°58'6 9.5
2017-Apr-18 10:52N 29°33' W 094°55'  
2017-Apr-11 20:34N 29°28' W 094°51'110.5
2017-Apr-11 20:30N 29°29' W 094°52'510.1
2017-Apr-11 20:01N 29°33' W 094°55'5 9.6
2017-Apr-11 19:31N 29°37' W 094°57'510.0
2017-Apr-11 19:01N 29°42' W 094°60'5 9.0
2017-Apr-11 18:30N 29°45' W 095°04'3 4.9
2017-Apr-11 17:58N 29°45' W 095°07'0 0.1
2017-Apr-11 17:27N 29°45' W 095°07'0 0.0
2017-Apr-11 16:54N 29°45' W 095°07'0 0.0
2017-Apr-11 15:57N 29°45' W 095°07'0 0.0
2017-Apr-11 15:26N 29°45' W 095°07'0 0.0
2017-Apr-11 14:53N 29°45' W 095°07'0 0.0
2017-Apr-11 11:48N 29°45' W 095°07'0 1.6
2017-Apr-11 11:30N 29°45' W 095°06'2 4.1
2017-Apr-11 11:00N 29°45' W 095°04'4 8.1
2017-Apr-11 10:30N 29°42' W 095°00'5 9.4
2017-Apr-11 10:00N 29°38' W 094°58'5 9.6
2017-Apr-11 09:30N 29°34' W 094°55'5 9.9
2017-Apr-11 09:01N 29°30' W 094°52'5 9.7
2017-Apr-11 08:30N 29°25' W 094°50'  

Dump ship's entire track history